sensor_id;sensor_type;location;lat;lon;timestamp;temperature;humidity
6018;DHT22;3037;51.068;13.780;2023-06-19T00:00:03;17.00;1.00
6018;DHT22;3037;51.068;13.780;2023-06-19T00:02:33;17.00;99.90
6018;DHT22;3037;51.068;13.780;2023-06-19T00:04:58;16.90;1.00
6018;DHT22;3037;51.068;13.780;2023-06-19T00:07:24;16.80;1.00
6018;DHT22;3037;51.068;13.780;2023-06-19T00:09:49;16.80;99.90
6018;DHT22;3037;51.068;13.780;2023-06-19T00:12:15;16.80;1.00
6018;DHT22;3037;51.068;13.780;2023-06-19T00:14:40;16.80;99.90
6018;DHT22;3037;51.068;13.780;2023-06-19T00:17:06;16.80;1.00
6018;DHT22;3037;51.068;13.780;2023-06-19T00:19:32;16.80;1.00
6018;DHT22;3037;51.068;13.780;2023-06-19T00:22:02;16.70;1.00
6018;DHT22;3037;51.068;13.780;2023-06-19T00:24:28;16.60;99.90
6018;DHT22;3037;51.068;13.780;2023-06-19T00:26:53;16.60;99.90
6018;DHT22;3037;51.068;13.780;2023-06-19T00:29:19;16.60;1.00
6018;DHT22;3037;51.068;13.780;2023-06-19T00:31:44;16.50;1.00
6018;DHT22;3037;51.068;13.780;2023-06-19T00:34:10;16.50;1.00
6018;DHT22;3037;51.068;13.780;2023-06-19T00:36:35;16.60;1.00
6018;DHT22;3037;51.068;13.780;2023-06-19T00:39:06;16.50;99.90
6018;DHT22;3037;51.068;13.780;2023-06-19T00:41:35;16.50;1.00
6018;DHT22;3037;51.068;13.780;2023-06-19T00:44:00;16.50;28.10
6018;DHT22;3037;51.068;13.780;2023-06-19T00:46:26;16.50;99.90
6018;DHT22;3037;51.068;13.780;2023-06-19T00:48:51;16.50;99.90
6018;DHT22;3037;51.068;13.780;2023-06-19T00:51:17;16.50;99.90
6018;DHT22;3037;51.068;13.780;2023-06-19T00:53:43;16.40;99.90
6018;DHT22;3037;51.068;13.780;2023-06-19T00:56:08;16.40;99.90
6018;DHT22;3037;51.068;13.780;2023-06-19T00:58:34;16.40;99.90
6018;DHT22;3037;51.068;13.780;2023-06-19T01:01:00;16.50;99.90
6018;DHT22;3037;51.068;13.780;2023-06-19T01:03:26;16.50;99.90
6018;DHT22;3037;51.068;13.780;2023-06-19T01:05:53;16.50;99.90
6018;DHT22;3037;51.068;13.780;2023-06-19T01:11:21;16.40;99.90
6018;DHT22;3037;51.068;13.780;2023-06-19T01:13:52;16.40;99.90
6018;DHT22;3037;51.068;13.780;2023-06-19T01:16:21;16.30;99.90
6018;DHT22;3037;51.068;13.780;2023-06-19T01:18:48;15.70;99.90
6018;DHT22;3037;51.068;13.780;2023-06-19T01:21:16;16.30;99.90
6018;DHT22;3037;51.068;13.780;2023-06-19T01:23:43;16.30;99.90
6018;DHT22;3037;51.068;13.780;2023-06-19T01:26:09;16.40;99.90
6018;DHT22;3037;51.068;13.780;2023-06-19T01:28:36;16.40;99.90
6018;DHT22;3037;51.068;13.780;2023-06-19T01:31:05;16.30;99.90
6018;DHT22;3037;51.068;13.780;2023-06-19T01:33:32;16.30;99.90
6018;DHT22;3037;51.068;13.780;2023-06-19T01:35:58;16.20;99.90
6018;DHT22;3037;51.068;13.780;2023-06-19T01:38:25;16.20;99.90
6018;DHT22;3037;51.068;13.780;2023-06-19T01:40:53;16.20;99.90
6018;DHT22;3037;51.068;13.780;2023-06-19T01:43:20;16.20;99.90
6018;DHT22;3037;51.068;13.780;2023-06-19T01:45:46;16.20;99.90
6018;DHT22;3037;51.068;13.780;2023-06-19T01:48:13;16.10;99.90
6018;DHT22;3037;51.068;13.780;2023-06-19T01:50:39;16.00;99.90
6018;DHT22;3037;51.068;13.780;2023-06-19T01:53:04;16.10;99.90
6018;DHT22;3037;51.068;13.780;2023-06-19T01:55:30;16.10;99.90
6018;DHT22;3037;51.068;13.780;2023-06-19T01:57:56;16.10;99.90
6018;DHT22;3037;51.068;13.780;2023-06-19T02:00:21;16.10;99.90
6018;DHT22;3037;51.068;13.780;2023-06-19T02:02:47;16.00;99.90
6018;DHT22;3037;51.068;13.780;2023-06-19T02:05:13;15.90;99.90
6018;DHT22;3037;51.068;13.780;2023-06-19T02:07:39;15.90;99.90
6018;DHT22;3037;51.068;13.780;2023-06-19T02:10:05;16.00;99.90
6018;DHT22;3037;51.068;13.780;2023-06-19T02:12:31;16.00;99.90
6018;DHT22;3037;51.068;13.780;2023-06-19T02:14:56;16.00;99.90
6018;DHT22;3037;51.068;13.780;2023-06-19T02:17:22;15.90;99.90
6018;DHT22;3037;51.068;13.780;2023-06-19T02:19:47;15.90;99.90
6018;DHT22;3037;51.068;13.780;2023-06-19T02:22:13;15.90;99.90
6018;DHT22;3037;51.068;13.780;2023-06-19T02:24:39;15.90;99.90
6018;DHT22;3037;51.068;13.780;2023-06-19T02:27:05;15.80;99.90
6018;DHT22;3037;51.068;13.780;2023-06-19T02:29:31;15.80;99.90
6018;DHT22;3037;51.068;13.780;2023-06-19T02:31:59;15.80;99.90
6018;DHT22;3037;51.068;13.780;2023-06-19T02:34:24;15.70;99.90
6018;DHT22;3037;51.068;13.780;2023-06-19T02:36:50;15.70;99.90
6018;DHT22;3037;51.068;13.780;2023-06-19T02:39:16;15.70;99.90
6018;DHT22;3037;51.068;13.780;2023-06-19T02:41:41;15.60;99.90
6018;DHT22;3037;51.068;13.780;2023-06-19T02:44:12;15.60;99.90
6018;DHT22;3037;51.068;13.780;2023-06-19T02:46:38;15.70;99.90
6018;DHT22;3037;51.068;13.780;2023-06-19T02:49:03;15.60;99.90
6018;DHT22;3037;51.068;13.780;2023-06-19T02:51:29;15.70;99.90
6018;DHT22;3037;51.068;13.780;2023-06-19T02:53:55;15.70;99.90
6018;DHT22;3037;51.068;13.780;2023-06-19T02:56:20;15.70;99.90
6018;DHT22;3037;51.068;13.780;2023-06-19T02:58:46;15.60;99.90
6018;DHT22;3037;51.068;13.780;2023-06-19T03:01:11;15.60;99.90
6018;DHT22;3037;51.068;13.780;2023-06-19T03:03:37;15.60;99.90
6018;DHT22;3037;51.068;13.780;2023-06-19T03:06:05;15.60;99.90
6018;DHT22;3037;51.068;13.780;2023-06-19T03:08:32;15.70;99.90
6018;DHT22;3037;51.068;13.780;2023-06-19T03:10:58;15.70;99.90
6018;DHT22;3037;51.068;13.780;2023-06-19T03:13:23;15.80;99.90
6018;DHT22;3037;51.068;13.780;2023-06-19T03:15:49;15.90;99.90
6018;DHT22;3037;51.068;13.780;2023-06-19T03:18:14;15.90;99.90
6018;DHT22;3037;51.068;13.780;2023-06-19T03:20:40;15.90;99.90
6018;DHT22;3037;51.068;13.780;2023-06-19T03:23:05;15.90;99.90
6018;DHT22;3037;51.068;13.780;2023-06-19T03:25:31;16.00;99.90
6018;DHT22;3037;51.068;13.780;2023-06-19T03:28:01;16.00;99.90
6018;DHT22;3037;51.068;13.780;2023-06-19T03:30:27;16.10;99.90
6018;DHT22;3037;51.068;13.780;2023-06-19T03:32:53;16.10;99.90
6018;DHT22;3037;51.068;13.780;2023-06-19T03:35:18;16.20;99.90
6018;DHT22;3037;51.068;13.780;2023-06-19T03:37:44;16.40;99.90
6018;DHT22;3037;51.068;13.780;2023-06-19T03:40:10;16.50;99.90
6018;DHT22;3037;51.068;13.780;2023-06-19T03:42:39;16.50;99.90
6018;DHT22;3037;51.068;13.780;2023-06-19T03:45:05;16.50;99.90
6018;DHT22;3037;51.068;13.780;2023-06-19T03:47:31;16.50;99.90
6018;DHT22;3037;51.068;13.780;2023-06-19T03:49:57;16.60;99.90
6018;DHT22;3037;51.068;13.780;2023-06-19T03:52:22;16.60;99.90
6018;DHT22;3037;51.068;13.780;2023-06-19T03:54:48;16.60;99.90
6018;DHT22;3037;51.068;13.780;2023-06-19T03:57:13;16.60;99.90
6018;DHT22;3037;51.068;13.780;2023-06-19T03:59:39;16.60;99.90
6018;DHT22;3037;51.068;13.780;2023-06-19T04:02:04;16.60;99.90
6018;DHT22;3037;51.068;13.780;2023-06-19T04:04:30;16.60;99.90
6018;DHT22;3037;51.068;13.780;2023-06-19T04:06:55;16.70;99.90
6018;DHT22;3037;51.068;13.780;2023-06-19T04:09:21;16.70;99.90
6018;DHT22;3037;51.068;13.780;2023-06-19T04:11:46;16.80;99.90
6018;DHT22;3037;51.068;13.780;2023-06-19T04:14:12;16.90;99.90
6018;DHT22;3037;51.068;13.780;2023-06-19T04:16:37;16.90;99.90
6018;DHT22;3037;51.068;13.780;2023-06-19T04:19:03;16.90;99.90
6018;DHT22;3037;51.068;13.780;2023-06-19T04:21:28;17.10;99.90
6018;DHT22;3037;51.068;13.780;2023-06-19T04:23:54;17.70;99.90
6018;DHT22;3037;51.068;13.780;2023-06-19T04:26:19;17.30;99.90
6018;DHT22;3037;51.068;13.780;2023-06-19T04:28:46;17.40;99.90
6018;DHT22;3037;51.068;13.780;2023-06-19T04:31:12;17.50;99.90
6018;DHT22;3037;51.068;13.780;2023-06-19T04:33:38;17.60;99.90
6018;DHT22;3037;51.068;13.780;2023-06-19T04:36:05;17.90;99.90
6018;DHT22;3037;51.068;13.780;2023-06-19T04:38:31;18.00;99.90
6018;DHT22;3037;51.068;13.780;2023-06-19T04:40:56;18.00;99.90
6018;DHT22;3037;51.068;13.780;2023-06-19T04:43:23;17.90;99.90
6018;DHT22;3037;51.068;13.780;2023-06-19T04:45:50;18.00;99.90
6018;DHT22;3037;51.068;13.780;2023-06-19T04:48:15;17.90;99.90
6018;DHT22;3037;51.068;13.780;2023-06-19T04:50:41;18.10;99.90
6018;DHT22;3037;51.068;13.780;2023-06-19T04:53:06;18.20;99.90
6018;DHT22;3037;51.068;13.780;2023-06-19T04:55:32;18.30;99.90
6018;DHT22;3037;51.068;13.780;2023-06-19T04:57:57;18.40;99.90
6018;DHT22;3037;51.068;13.780;2023-06-19T05:00:23;18.50;99.90
6018;DHT22;3037;51.068;13.780;2023-06-19T05:02:49;18.60;99.90
6018;DHT22;3037;51.068;13.780;2023-06-19T05:05:16;18.60;99.90
6018;DHT22;3037;51.068;13.780;2023-06-19T05:07:41;18.70;99.90
6018;DHT22;3037;51.068;13.780;2023-06-19T05:10:08;18.70;99.90
6018;DHT22;3037;51.068;13.780;2023-06-19T05:12:35;18.60;99.90
6018;DHT22;3037;51.068;13.780;2023-06-19T05:15:01;18.70;99.90
6018;DHT22;3037;51.068;13.780;2023-06-19T05:17:26;18.80;99.90
6018;DHT22;3037;51.068;13.780;2023-06-19T05:19:52;18.80;99.90
6018;DHT22;3037;51.068;13.780;2023-06-19T05:22:18;19.00;99.90
6018;DHT22;3037;51.068;13.780;2023-06-19T05:24:44;19.30;1.00
6018;DHT22;3037;51.068;13.780;2023-06-19T05:27:10;19.70;99.90
6018;DHT22;3037;51.068;13.780;2023-06-19T05:29:35;19.90;99.90
6018;DHT22;3037;51.068;13.780;2023-06-19T05:32:01;20.00;99.90
6018;DHT22;3037;51.068;13.780;2023-06-19T05:34:26;19.70;99.90
6018;DHT22;3037;51.068;13.780;2023-06-19T05:36:52;19.60;58.80
6018;DHT22;3037;51.068;13.780;2023-06-19T05:39:18;19.50;1.00
6018;DHT22;3037;51.068;13.780;2023-06-19T05:41:44;19.50;1.00
6018;DHT22;3037;51.068;13.780;2023-06-19T05:44:11;19.60;1.00
6018;DHT22;3037;51.068;13.780;2023-06-19T05:46:40;19.70;1.00
6018;DHT22;3037;51.068;13.780;2023-06-19T05:49:06;19.80;1.00
6018;DHT22;3037;51.068;13.780;2023-06-19T05:51:31;19.90;1.00
6018;DHT22;3037;51.068;13.780;2023-06-19T05:53:57;19.90;1.00
6018;DHT22;3037;51.068;13.780;2023-06-19T05:56:28;20.00;1.00
6018;DHT22;3037;51.068;13.780;2023-06-19T05:58:54;20.00;1.00
6018;DHT22;3037;51.068;13.780;2023-06-19T06:01:19;20.00;1.00
6018;DHT22;3037;51.068;13.780;2023-06-19T06:03:45;20.00;1.00
6018;DHT22;3037;51.068;13.780;2023-06-19T06:06:11;20.00;1.00
6018;DHT22;3037;51.068;13.780;2023-06-19T06:08:36;20.00;1.00
6018;DHT22;3037;51.068;13.780;2023-06-19T06:11:02;20.10;1.00
6018;DHT22;3037;51.068;13.780;2023-06-19T06:13:27;20.10;1.00
6018;DHT22;3037;51.068;13.780;2023-06-19T06:15:53;20.20;1.00
6018;DHT22;3037;51.068;13.780;2023-06-19T06:18:19;20.30;1.00
6018;DHT22;3037;51.068;13.780;2023-06-19T06:20:44;20.40;99.90
6018;DHT22;3037;51.068;13.780;2023-06-19T06:23:10;20.50;96.10
6018;DHT22;3037;51.068;13.780;2023-06-19T06:25:35;20.60;95.30
6018;DHT22;3037;51.068;13.780;2023-06-19T06:28:01;20.60;95.00
6018;DHT22;3037;51.068;13.780;2023-06-19T06:30:26;20.60;95.10
6018;DHT22;3037;51.068;13.780;2023-06-19T06:32:53;20.80;93.40
6018;DHT22;3037;51.068;13.780;2023-06-19T06:35:19;20.90;92.40
6018;DHT22;3037;51.068;13.780;2023-06-19T06:37:44;21.00;91.10
6018;DHT22;3037;51.068;13.780;2023-06-19T06:40:11;21.20;90.60
6018;DHT22;3037;51.068;13.780;2023-06-19T06:42:38;21.30;89.00
6018;DHT22;3037;51.068;13.780;2023-06-19T06:45:07;21.30;90.30
6018;DHT22;3037;51.068;13.780;2023-06-19T06:47:34;21.40;87.30
6018;DHT22;3037;51.068;13.780;2023-06-19T06:50:00;21.40;87.50
6018;DHT22;3037;51.068;13.780;2023-06-19T06:52:25;21.40;84.40
6018;DHT22;3037;51.068;13.780;2023-06-19T06:54:51;21.40;85.90
6018;DHT22;3037;51.068;13.780;2023-06-19T06:57:16;21.40;83.80
6018;DHT22;3037;51.068;13.780;2023-06-19T06:59:42;21.60;83.20
6018;DHT22;3037;51.068;13.780;2023-06-19T07:02:08;21.70;79.80
6018;DHT22;3037;51.068;13.780;2023-06-19T07:04:33;21.90;77.70
6018;DHT22;3037;51.068;13.780;2023-06-19T07:06:59;22.00;76.40
6018;DHT22;3037;51.068;13.780;2023-06-19T07:09:24;22.30;68.10
6018;DHT22;3037;51.068;13.780;2023-06-19T07:11:50;22.40;65.70
6018;DHT22;3037;51.068;13.780;2023-06-19T07:14:16;22.40;65.60
6018;DHT22;3037;51.068;13.780;2023-06-19T07:16:44;22.40;61.10
6018;DHT22;3037;51.068;13.780;2023-06-19T07:19:11;22.50;60.20
6018;DHT22;3037;51.068;13.780;2023-06-19T07:21:37;22.80;59.30
6018;DHT22;3037;51.068;13.780;2023-06-19T07:24:04;23.00;58.10
6018;DHT22;3037;51.068;13.780;2023-06-19T07:26:30;22.80;55.50
6018;DHT22;3037;51.068;13.780;2023-06-19T07:28:55;23.00;55.60
6018;DHT22;3037;51.068;13.780;2023-06-19T07:31:21;23.10;53.00
6018;DHT22;3037;51.068;13.780;2023-06-19T07:33:46;23.10;53.10
6018;DHT22;3037;51.068;13.780;2023-06-19T07:36:12;23.30;52.00
6018;DHT22;3037;51.068;13.780;2023-06-19T07:38:40;23.30;49.90
6018;DHT22;3037;51.068;13.780;2023-06-19T07:41:05;23.50;51.90
6018;DHT22;3037;51.068;13.780;2023-06-19T07:43:32;23.80;49.90
6018;DHT22;3037;51.068;13.780;2023-06-19T07:45:58;23.80;45.90
6018;DHT22;3037;51.068;13.780;2023-06-19T07:48:24;24.10;44.10
6018;DHT22;3037;51.068;13.780;2023-06-19T07:50:50;24.10;42.10
6018;DHT22;3037;51.068;13.780;2023-06-19T07:53:16;24.20;38.50
6018;DHT22;3037;51.068;13.780;2023-06-19T07:55:41;24.50;36.40
6018;DHT22;3037;51.068;13.780;2023-06-19T07:58:07;24.40;35.80
6018;DHT22;3037;51.068;13.780;2023-06-19T08:00:33;24.40;34.80
6018;DHT22;3037;51.068;13.780;2023-06-19T08:02:58;24.30;33.10
6018;DHT22;3037;51.068;13.780;2023-06-19T08:05:24;24.20;31.40
6018;DHT22;3037;51.068;13.780;2023-06-19T08:07:50;24.30;30.80
6018;DHT22;3037;51.068;13.780;2023-06-19T08:10:15;24.40;31.00
6018;DHT22;3037;51.068;13.780;2023-06-19T08:12:42;24.60;26.50
6018;DHT22;3037;51.068;13.780;2023-06-19T08:15:08;24.70;25.90
6018;DHT22;3037;51.068;13.780;2023-06-19T08:17:34;24.70;23.20
6018;DHT22;3037;51.068;13.780;2023-06-19T08:20:00;24.70;19.60
6018;DHT22;3037;51.068;13.780;2023-06-19T08:22:26;24.70;18.90
6018;DHT22;3037;51.068;13.780;2023-06-19T08:24:51;24.90;17.20
6018;DHT22;3037;51.068;13.780;2023-06-19T08:27:17;25.00;15.90
6018;DHT22;3037;51.068;13.780;2023-06-19T08:29:42;24.90;16.30
6018;DHT22;3037;51.068;13.780;2023-06-19T08:32:08;25.20;13.60
6018;DHT22;3037;51.068;13.780;2023-06-19T08:34:35;25.30;9.90
6018;DHT22;3037;51.068;13.780;2023-06-19T08:37:00;25.20;7.90
6018;DHT22;3037;51.068;13.780;2023-06-19T08:39:26;25.00;9.30
6018;DHT22;3037;51.068;13.780;2023-06-19T08:41:51;25.00;12.40
6018;DHT22;3037;51.068;13.780;2023-06-19T08:44:18;25.10;7.00
6018;DHT22;3037;51.068;13.780;2023-06-19T08:46:44;24.90;7.80
6018;DHT22;3037;51.068;13.780;2023-06-19T08:49:10;24.60;8.10
6018;DHT22;3037;51.068;13.780;2023-06-19T08:51:36;24.70;10.00
6018;DHT22;3037;51.068;13.780;2023-06-19T08:54:04;24.60;10.10
6018;DHT22;3037;51.068;13.780;2023-06-19T08:56:31;24.60;12.40
6018;DHT22;3037;51.068;13.780;2023-06-19T08:59:08;24.50;11.70
6018;DHT22;3037;51.068;13.780;2023-06-19T09:01:34;24.30;14.00
6018;DHT22;3037;51.068;13.780;2023-06-19T09:04:00;24.10;14.70
6018;DHT22;3037;51.068;13.780;2023-06-19T09:06:25;24.40;15.20
6018;DHT22;3037;51.068;13.780;2023-06-19T09:09:00;24.50;14.30
6018;DHT22;3037;51.068;13.780;2023-06-19T09:11:25;24.10;14.60
6018;DHT22;3037;51.068;13.780;2023-06-19T09:13:57;24.10;15.50
6018;DHT22;3037;51.068;13.780;2023-06-19T09:16:23;24.40;15.30
6018;DHT22;3037;51.068;13.780;2023-06-19T09:18:49;24.50;14.30
6018;DHT22;3037;51.068;13.780;2023-06-19T09:21:19;24.10;15.20
6018;DHT22;3037;51.068;13.780;2023-06-19T09:23:47;24.30;16.90
6018;DHT22;3037;51.068;13.780;2023-06-19T09:26:16;24.20;17.50
6018;DHT22;3037;51.068;13.780;2023-06-19T09:28:43;24.30;18.20
6018;DHT22;3037;51.068;13.780;2023-06-19T09:31:09;24.50;18.80
6018;DHT22;3037;51.068;13.780;2023-06-19T09:33:36;24.40;20.90
6018;DHT22;3037;51.068;13.780;2023-06-19T09:36:03;24.30;22.50
6018;DHT22;3037;51.068;13.780;2023-06-19T09:38:30;24.20;23.30
6018;DHT22;3037;51.068;13.780;2023-06-19T09:40:58;24.10;21.00
6018;DHT22;3037;51.068;13.780;2023-06-19T09:43:34;24.00;21.20
6018;DHT22;3037;51.068;13.780;2023-06-19T09:46:02;23.80;24.60
6018;DHT22;3037;51.068;13.780;2023-06-19T09:48:30;24.00;23.10
6018;DHT22;3037;51.068;13.780;2023-06-19T09:51:10;24.10;23.90
6018;DHT22;3037;51.068;13.780;2023-06-19T09:53:37;24.00;24.70
6018;DHT22;3037;51.068;13.780;2023-06-19T09:56:03;24.20;24.90
6018;DHT22;3037;51.068;13.780;2023-06-19T09:58:30;24.30;25.00
6018;DHT22;3037;51.068;13.780;2023-06-19T10:00:56;24.20;25.20
6018;DHT22;3037;51.068;13.780;2023-06-19T10:03:33;24.00;26.60
6018;DHT22;3037;51.068;13.780;2023-06-19T10:06:00;23.80;27.70
6018;DHT22;3037;51.068;13.780;2023-06-19T10:08:30;23.70;27.40
6018;DHT22;3037;51.068;13.780;2023-06-19T10:10:56;23.80;28.70
6018;DHT22;3037;51.068;13.780;2023-06-19T10:13:34;23.80;32.40
6018;DHT22;3037;51.068;13.780;2023-06-19T10:16:00;23.90;33.80
6018;DHT22;3037;51.068;13.780;2023-06-19T10:18:26;23.90;36.30
6018;DHT22;3037;51.068;13.780;2023-06-19T10:20:54;23.90;33.60
6018;DHT22;3037;51.068;13.780;2023-06-19T10:23:21;24.00;36.00
6018;DHT22;3037;51.068;13.780;2023-06-19T10:25:59;24.20;35.50
6018;DHT22;3037;51.068;13.780;2023-06-19T10:28:30;24.20;34.60
6018;DHT22;3037;51.068;13.780;2023-06-19T10:33:24;24.80;31.00
6018;DHT22;3037;51.068;13.780;2023-06-19T10:35:50;24.70;27.90
6018;DHT22;3037;51.068;13.780;2023-06-19T10:38:16;25.00;27.80
6018;DHT22;3037;51.068;13.780;2023-06-19T10:40:42;25.20;27.50
6018;DHT22;3037;51.068;13.780;2023-06-19T10:43:09;25.20;26.00
6018;DHT22;3037;51.068;13.780;2023-06-19T10:45:34;25.30;25.80
6018;DHT22;3037;51.068;13.780;2023-06-19T10:48:02;25.90;25.30
6018;DHT22;3037;51.068;13.780;2023-06-19T10:50:42;26.50;21.60
6018;DHT22;3037;51.068;13.780;2023-06-19T10:53:07;27.00;15.50
6018;DHT22;3037;51.068;13.780;2023-06-19T10:55:33;27.00;13.50
6018;DHT22;3037;51.068;13.780;2023-06-19T10:57:59;26.70;13.70
6018;DHT22;3037;51.068;13.780;2023-06-19T11:00:29;27.10;10.70
6018;DHT22;3037;51.068;13.780;2023-06-19T11:02:56;27.40;10.50
6018;DHT22;3037;51.068;13.780;2023-06-19T11:05:23;27.50;8.70
6018;DHT22;3037;51.068;13.780;2023-06-19T11:07:56;28.10;3.90
6018;DHT22;3037;51.068;13.780;2023-06-19T11:10:25;29.50;1.00
6018;DHT22;3037;51.068;13.780;2023-06-19T11:12:58;30.40;1.00
6018;DHT22;3037;51.068;13.780;2023-06-19T11:15:34;30.40;1.00
6018;DHT22;3037;51.068;13.780;2023-06-19T11:18:01;30.20;1.00
6018;DHT22;3037;51.068;13.780;2023-06-19T11:20:27;31.30;1.00
6018;DHT22;3037;51.068;13.780;2023-06-19T11:22:58;31.80;1.00
6018;DHT22;3037;51.068;13.780;2023-06-19T11:25:34;31.10;1.00
6018;DHT22;3037;51.068;13.780;2023-06-19T11:28:00;30.20;1.00
6018;DHT22;3037;51.068;13.780;2023-06-19T11:30:33;30.60;1.00
6018;DHT22;3037;51.068;13.780;2023-06-19T11:32:59;31.00;1.00
6018;DHT22;3037;51.068;13.780;2023-06-19T11:35:32;32.10;1.00
6018;DHT22;3037;51.068;13.780;2023-06-19T11:37:59;31.40;1.00
6018;DHT22;3037;51.068;13.780;2023-06-19T11:40:25;31.30;1.00
6018;DHT22;3037;51.068;13.780;2023-06-19T11:42:53;32.30;1.00
6018;DHT22;3037;51.068;13.780;2023-06-19T11:45:20;31.90;1.00
6018;DHT22;3037;51.068;13.780;2023-06-19T11:47:46;31.70;1.00
6018;DHT22;3037;51.068;13.780;2023-06-19T11:50:13;31.40;1.00
6018;DHT22;3037;51.068;13.780;2023-06-19T11:52:41;31.40;1.00
6018;DHT22;3037;51.068;13.780;2023-06-19T11:55:07;30.70;1.00
6018;DHT22;3037;51.068;13.780;2023-06-19T11:57:33;30.10;1.00
6018;DHT22;3037;51.068;13.780;2023-06-19T11:59:58;30.60;1.00
6018;DHT22;3037;51.068;13.780;2023-06-19T12:02:24;31.00;1.00
6018;DHT22;3037;51.068;13.780;2023-06-19T12:04:50;30.90;1.00
6018;DHT22;3037;51.068;13.780;2023-06-19T12:07:15;30.90;1.00
6018;DHT22;3037;51.068;13.780;2023-06-19T12:09:41;31.20;1.00
6018;DHT22;3037;51.068;13.780;2023-06-19T12:12:08;31.50;1.00
6018;DHT22;3037;51.068;13.780;2023-06-19T12:14:34;31.80;1.00
6018;DHT22;3037;51.068;13.780;2023-06-19T12:16:59;31.70;1.00
6018;DHT22;3037;51.068;13.780;2023-06-19T12:19:26;31.00;1.00
6018;DHT22;3037;51.068;13.780;2023-06-19T12:21:53;30.70;1.00
6018;DHT22;3037;51.068;13.780;2023-06-19T12:24:18;30.60;1.00
6018;DHT22;3037;51.068;13.780;2023-06-19T12:26:44;30.20;1.00
6018;DHT22;3037;51.068;13.780;2023-06-19T12:29:10;30.60;1.00
6018;DHT22;3037;51.068;13.780;2023-06-19T12:31:35;31.20;1.00
6018;DHT22;3037;51.068;13.780;2023-06-19T12:34:02;31.40;1.00
6018;DHT22;3037;51.068;13.780;2023-06-19T12:36:28;31.70;1.00
6018;DHT22;3037;51.068;13.780;2023-06-19T12:38:56;31.50;1.00
6018;DHT22;3037;51.068;13.780;2023-06-19T12:41:22;31.00;1.00
6018;DHT22;3037;51.068;13.780;2023-06-19T12:43:47;31.20;1.00
6018;DHT22;3037;51.068;13.780;2023-06-19T12:46:13;30.80;1.00
6018;DHT22;3037;51.068;13.780;2023-06-19T12:48:40;30.80;1.00
6018;DHT22;3037;51.068;13.780;2023-06-19T12:51:06;30.20;1.00
6018;DHT22;3037;51.068;13.780;2023-06-19T12:53:32;30.00;1.00
6018;DHT22;3037;51.068;13.780;2023-06-19T12:55:58;29.90;1.00
6018;DHT22;3037;51.068;13.780;2023-06-19T12:58:25;30.00;1.00
6018;DHT22;3037;51.068;13.780;2023-06-19T13:00:51;30.00;1.00
6018;DHT22;3037;51.068;13.780;2023-06-19T13:03:16;30.20;1.00
6018;DHT22;3037;51.068;13.780;2023-06-19T13:05:42;30.00;1.00
6018;DHT22;3037;51.068;13.780;2023-06-19T13:08:07;29.60;1.00
6018;DHT22;3037;51.068;13.780;2023-06-19T13:10:33;29.60;1.00
6018;DHT22;3037;51.068;13.780;2023-06-19T13:12:58;29.50;1.00
6018;DHT22;3037;51.068;13.780;2023-06-19T13:15:24;29.90;1.00
6018;DHT22;3037;51.068;13.780;2023-06-19T13:17:50;29.90;1.00
6018;DHT22;3037;51.068;13.780;2023-06-19T13:20:15;29.90;1.00
6018;DHT22;3037;51.068;13.780;2023-06-19T13:22:41;29.90;1.00
6018;DHT22;3037;51.068;13.780;2023-06-19T13:25:07;30.20;1.00
6018;DHT22;3037;51.068;13.780;2023-06-19T13:27:33;30.10;1.00
6018;DHT22;3037;51.068;13.780;2023-06-19T13:30:00;29.90;1.00
6018;DHT22;3037;51.068;13.780;2023-06-19T13:32:26;30.00;1.00
6018;DHT22;3037;51.068;13.780;2023-06-19T13:34:52;29.70;1.00
6018;DHT22;3037;51.068;13.780;2023-06-19T13:37:18;29.80;1.00
6018;DHT22;3037;51.068;13.780;2023-06-19T13:39:44;30.00;1.00
6018;DHT22;3037;51.068;13.780;2023-06-19T13:42:09;30.20;1.00
6018;DHT22;3037;51.068;13.780;2023-06-19T13:44:36;30.20;1.00
6018;DHT22;3037;51.068;13.780;2023-06-19T13:47:01;29.90;1.00
6018;DHT22;3037;51.068;13.780;2023-06-19T13:49:27;29.90;1.00
6018;DHT22;3037;51.068;13.780;2023-06-19T13:51:53;30.40;1.00
6018;DHT22;3037;51.068;13.780;2023-06-19T13:54:19;30.00;1.00
6018;DHT22;3037;51.068;13.780;2023-06-19T13:56:46;30.10;1.00
6018;DHT22;3037;51.068;13.780;2023-06-19T13:59:12;30.20;1.00
6018;DHT22;3037;51.068;13.780;2023-06-19T14:01:38;30.10;1.00
6018;DHT22;3037;51.068;13.780;2023-06-19T14:04:04;30.60;1.00
6018;DHT22;3037;51.068;13.780;2023-06-19T14:06:30;30.30;1.00
6018;DHT22;3037;51.068;13.780;2023-06-19T14:08:55;30.30;1.00
6018;DHT22;3037;51.068;13.780;2023-06-19T14:11:21;29.90;1.00
6018;DHT22;3037;51.068;13.780;2023-06-19T14:13:46;29.70;1.00
6018;DHT22;3037;51.068;13.780;2023-06-19T14:16:12;29.60;1.00
6018;DHT22;3037;51.068;13.780;2023-06-19T14:18:37;29.30;1.00
6018;DHT22;3037;51.068;13.780;2023-06-19T14:21:03;29.00;1.00
6018;DHT22;3037;51.068;13.780;2023-06-19T14:23:28;28.90;1.00
6018;DHT22;3037;51.068;13.780;2023-06-19T14:25:54;29.20;1.00
6018;DHT22;3037;51.068;13.780;2023-06-19T14:28:19;29.40;1.00
6018;DHT22;3037;51.068;13.780;2023-06-19T14:30:45;29.40;1.00
6018;DHT22;3037;51.068;13.780;2023-06-19T14:33:10;29.30;1.00
6018;DHT22;3037;51.068;13.780;2023-06-19T14:35:41;29.30;1.00
6018;DHT22;3037;51.068;13.780;2023-06-19T14:38:06;29.20;1.00
6018;DHT22;3037;51.068;13.780;2023-06-19T14:40:32;29.10;1.00
6018;DHT22;3037;51.068;13.780;2023-06-19T14:42:57;29.30;1.00
6018;DHT22;3037;51.068;13.780;2023-06-19T14:45:23;29.40;1.00
6018;DHT22;3037;51.068;13.780;2023-06-19T14:47:48;29.70;1.00
6018;DHT22;3037;51.068;13.780;2023-06-19T14:50:14;29.60;1.00
6018;DHT22;3037;51.068;13.780;2023-06-19T14:52:39;29.40;1.00
6018;DHT22;3037;51.068;13.780;2023-06-19T14:55:05;29.40;1.00
6018;DHT22;3037;51.068;13.780;2023-06-19T14:57:31;29.10;1.00
6018;DHT22;3037;51.068;13.780;2023-06-19T14:59:56;29.10;1.00
6018;DHT22;3037;51.068;13.780;2023-06-19T15:02:22;29.00;1.00
6018;DHT22;3037;51.068;13.780;2023-06-19T15:04:47;29.20;1.00
6018;DHT22;3037;51.068;13.780;2023-06-19T15:07:13;29.30;1.00
6018;DHT22;3037;51.068;13.780;2023-06-19T15:09:38;29.30;1.00
6018;DHT22;3037;51.068;13.780;2023-06-19T15:12:04;29.40;1.00
6018;DHT22;3037;51.068;13.780;2023-06-19T15:14:30;29.50;1.00
6018;DHT22;3037;51.068;13.780;2023-06-19T15:16:55;29.70;1.00
6018;DHT22;3037;51.068;13.780;2023-06-19T15:19:21;29.80;1.00
6018;DHT22;3037;51.068;13.780;2023-06-19T15:21:46;29.50;1.00
6018;DHT22;3037;51.068;13.780;2023-06-19T15:24:12;29.50;1.00
6018;DHT22;3037;51.068;13.780;2023-06-19T15:26:37;29.70;1.00
6018;DHT22;3037;51.068;13.780;2023-06-19T15:29:03;29.70;1.00
6018;DHT22;3037;51.068;13.780;2023-06-19T15:31:28;29.70;1.00
6018;DHT22;3037;51.068;13.780;2023-06-19T15:33:54;29.60;1.00
6018;DHT22;3037;51.068;13.780;2023-06-19T15:36:19;29.30;1.00
6018;DHT22;3037;51.068;13.780;2023-06-19T15:38:45;29.10;1.00
6018;DHT22;3037;51.068;13.780;2023-06-19T15:41:10;28.90;1.00
6018;DHT22;3037;51.068;13.780;2023-06-19T15:43:37;29.00;1.00
6018;DHT22;3037;51.068;13.780;2023-06-19T15:46:03;28.80;1.00
6018;DHT22;3037;51.068;13.780;2023-06-19T15:48:31;28.90;1.00
6018;DHT22;3037;51.068;13.780;2023-06-19T15:50:56;28.80;1.00